sensor_id;sensor_type;location;lat;lon;timestamp;pressure;altitude;pressure_sealevel;temperature;humidity
5812;BME280;2932;52.400;9.558;2023-02-17T00:00:45;101167.31;;;11.24;82.40
5812;BME280;2932;52.400;9.558;2023-02-17T00:03:10;101163.81;;;11.36;82.11
5812;BME280;2932;52.400;9.558;2023-02-17T00:05:38;101177.66;;;11.36;81.83
5812;BME280;2932;52.400;9.558;2023-02-17T00:08:03;101157.78;;;11.34;82.61
5812;BME280;2932;52.400;9.558;2023-02-17T00:10:28;101166.91;;;11.14;82.83
5812;BME280;2932;52.400;9.558;2023-02-17T00:12:54;101165.63;;;11.32;82.90
5812;BME280;2932;52.400;9.558;2023-02-17T00:15:19;101162.94;;;11.44;82.46
5812;BME280;2932;52.400;9.558;2023-02-17T00:17:44;101161.31;;;11.43;82.09
5812;BME280;2932;52.400;9.558;2023-02-17T00:20:10;101158.75;;;11.71;81.91
5812;BME280;2932;52.400;9.558;2023-02-17T00:22:35;101148.34;;;11.68;81.58
5812;BME280;2932;52.400;9.558;2023-02-17T00:25:01;101149.72;;;11.83;81.36
5812;BME280;2932;52.400;9.558;2023-02-17T00:27:26;101152.88;;;11.93;81.29
5812;BME280;2932;52.400;9.558;2023-02-17T00:29:51;101171.50;;;11.51;81.83
5812;BME280;2932;52.400;9.558;2023-02-17T00:32:16;101161.53;;;11.17;83.24
5812;BME280;2932;52.400;9.558;2023-02-17T00:34:42;101151.84;;;11.44;82.62
5812;BME280;2932;52.400;9.558;2023-02-17T00:37:07;101166.63;;;11.90;81.53
5812;BME280;2932;52.400;9.558;2023-02-17T00:39:33;101151.69;;;11.82;81.17
5812;BME280;2932;52.400;9.558;2023-02-17T00:41:58;101161.34;;;11.97;81.22
5812;BME280;2932;52.400;9.558;2023-02-17T00:44:23;101144.31;;;11.65;81.83
5812;BME280;2932;52.400;9.558;2023-02-17T00:46:49;101149.66;;;11.70;81.65
5812;BME280;2932;52.400;9.558;2023-02-17T00:49:20;101143.25;;;11.58;82.41
5812;BME280;2932;52.400;9.558;2023-02-17T00:51:46;101155.53;;;11.90;81.67
5812;BME280;2932;52.400;9.558;2023-02-17T00:54:12;101142.97;;;12.05;81.15
5812;BME280;2932;52.400;9.558;2023-02-17T00:56:38;101139.03;;;12.06;81.79
5812;BME280;2932;52.400;9.558;2023-02-17T00:59:04;101139.56;;;11.87;81.86
5812;BME280;2932;52.400;9.558;2023-02-17T01:01:30;101139.78;;;12.27;80.92
5812;BME280;2932;52.400;9.558;2023-02-17T01:03:56;101130.53;;;11.78;81.74
5812;BME280;2932;52.400;9.558;2023-02-17T01:06:27;101132.81;;;11.76;81.87
5812;BME280;2932;52.400;9.558;2023-02-17T01:08:52;101137.66;;;11.99;81.81
5812;BME280;2932;52.400;9.558;2023-02-17T01:11:21;101135.88;;;11.83;82.07
5812;BME280;2932;52.400;9.558;2023-02-17T01:13:47;101134.84;;;11.66;82.60
5812;BME280;2932;52.400;9.558;2023-02-17T01:16:18;101128.31;;;11.50;83.34
5812;BME280;2932;52.400;9.558;2023-02-17T01:18:43;101131.78;;;11.47;83.42
5812;BME280;2932;52.400;9.558;2023-02-17T01:21:24;101149.34;;;11.51;83.51
5812;BME280;2932;52.400;9.558;2023-02-17T01:23:51;101123.06;;;11.90;83.00
5812;BME280;2932;52.400;9.558;2023-02-17T01:26:19;101127.06;;;11.81;83.03
5812;BME280;2932;52.400;9.558;2023-02-17T01:28:46;101113.72;;;11.95;82.29
5812;BME280;2932;52.400;9.558;2023-02-17T01:31:11;101107.16;;;12.24;81.60
5812;BME280;2932;52.400;9.558;2023-02-17T01:33:38;101095.59;;;12.10;81.83
5812;BME280;2932;52.400;9.558;2023-02-17T01:36:05;101092.19;;;11.80;82.49
5812;BME280;2932;52.400;9.558;2023-02-17T01:38:32;101092.09;;;12.00;82.63
5812;BME280;2932;52.400;9.558;2023-02-17T01:40:58;101082.19;;;11.99;82.03
5812;BME280;2932;52.400;9.558;2023-02-17T01:43:23;101077.34;;;11.76;83.16
5812;BME280;2932;52.400;9.558;2023-02-17T01:45:56;101083.69;;;12.09;82.67
5812;BME280;2932;52.400;9.558;2023-02-17T01:48:43;101067.84;;;11.85;82.80
5812;BME280;2932;52.400;9.558;2023-02-17T01:51:20;101074.31;;;11.89;82.63
5812;BME280;2932;52.400;9.558;2023-02-17T01:54:11;101074.44;;;11.93;82.68
5812;BME280;2932;52.400;9.558;2023-02-17T01:56:41;101071.88;;;12.00;82.68
5812;BME280;2932;52.400;9.558;2023-02-17T01:59:12;101078.38;;;12.16;82.36
5812;BME280;2932;52.400;9.558;2023-02-17T02:01:40;101053.63;;;11.87;83.03
5812;BME280;2932;52.400;9.558;2023-02-17T02:04:06;101073.06;;;12.11;82.64
5812;BME280;2932;52.400;9.558;2023-02-17T02:06:33;101079.88;;;12.14;83.08
5812;BME280;2932;52.400;9.558;2023-02-17T02:09:07;101064.28;;;12.21;82.75
5812;BME280;2932;52.400;9.558;2023-02-17T02:11:34;101067.06;;;12.21;82.73
5812;BME280;2932;52.400;9.558;2023-02-17T02:14:00;101055.16;;;11.96;83.08
5812;BME280;2932;52.400;9.558;2023-02-17T02:22:17;101061.34;;;11.81;83.76
5812;BME280;2932;52.400;9.558;2023-02-17T02:31:10;101046.13;;;11.99;83.26
5812;BME280;2932;52.400;9.558;2023-02-17T02:33:47;101038.97;;;12.23;82.29
5812;BME280;2932;52.400;9.558;2023-02-17T02:36:21;101038.03;;;12.19;82.46
5812;BME280;2932;52.400;9.558;2023-02-17T02:41:22;101028.69;;;11.99;83.52
5812;BME280;2932;52.400;9.558;2023-02-17T02:43:50;101021.16;;;12.12;83.46
5812;BME280;2932;52.400;9.558;2023-02-17T02:46:16;101017.56;;;12.48;82.21
5812;BME280;2932;52.400;9.558;2023-02-17T02:48:42;101004.88;;;12.22;82.93
5812;BME280;2932;52.400;9.558;2023-02-17T02:51:29;101006.50;;;12.11;83.69
5812;BME280;2932;52.400;9.558;2023-02-17T02:54:18;101001.28;;;12.22;83.01
5812;BME280;2932;52.400;9.558;2023-02-17T02:57:50;101000.25;;;12.39;82.85
5812;BME280;2932;52.400;9.558;2023-02-17T03:02:30;100991.13;;;12.14;83.07
5812;BME280;2932;52.400;9.558;2023-02-17T03:05:14;100989.16;;;12.26;82.68
5812;BME280;2932;52.400;9.558;2023-02-17T03:07:58;100998.63;;;12.01;83.89
5812;BME280;2932;52.400;9.558;2023-02-17T03:10:25;101002.09;;;12.10;83.41
5812;BME280;2932;52.400;9.558;2023-02-17T03:12:51;101000.81;;;12.08;84.04
5812;BME280;2932;52.400;9.558;2023-02-17T03:15:25;100996.78;;;12.17;83.77
5812;BME280;2932;52.400;9.558;2023-02-17T03:17:55;101000.31;;;12.54;82.78
5812;BME280;2932;52.400;9.558;2023-02-17T03:20:21;100997.00;;;12.24;83.33
5812;BME280;2932;52.400;9.558;2023-02-17T03:22:46;100995.69;;;12.46;82.26
5812;BME280;2932;52.400;9.558;2023-02-17T03:25:13;100986.69;;;12.49;82.14
5812;BME280;2932;52.400;9.558;2023-02-17T03:27:38;101000.09;;;12.47;81.77
5812;BME280;2932;52.400;9.558;2023-02-17T03:30:04;100992.91;;;12.46;82.25
5812;BME280;2932;52.400;9.558;2023-02-17T03:32:30;100991.53;;;12.40;82.33
5812;BME280;2932;52.400;9.558;2023-02-17T03:34:55;100983.44;;;12.47;82.15
5812;BME280;2932;52.400;9.558;2023-02-17T03:37:21;100989.34;;;12.46;82.09
5812;BME280;2932;52.400;9.558;2023-02-17T03:39:46;100968.69;;;12.19;82.82
5812;BME280;2932;52.400;9.558;2023-02-17T03:42:11;100968.09;;;12.38;82.81
5812;BME280;2932;52.400;9.558;2023-02-17T03:44:37;100953.09;;;12.26;83.08
5812;BME280;2932;52.400;9.558;2023-02-17T03:47:02;100957.69;;;12.34;82.29
5812;BME280;2932;52.400;9.558;2023-02-17T03:49:27;100953.06;;;12.79;81.34
5812;BME280;2932;52.400;9.558;2023-02-17T03:51:53;100953.06;;;12.39;82.13
5812;BME280;2932;52.400;9.558;2023-02-17T03:54:18;100964.59;;;12.53;82.84
5812;BME280;2932;52.400;9.558;2023-02-17T03:56:43;100951.81;;;12.36;82.48
5812;BME280;2932;52.400;9.558;2023-02-17T03:59:09;100967.75;;;12.39;82.49
5812;BME280;2932;52.400;9.558;2023-02-17T04:01:34;100961.41;;;12.79;81.63
5812;BME280;2932;52.400;9.558;2023-02-17T04:03:59;100955.63;;;12.72;81.16
5812;BME280;2932;52.400;9.558;2023-02-17T04:06:25;100955.41;;;12.24;83.22
5812;BME280;2932;52.400;9.558;2023-02-17T04:08:50;100944.28;;;12.37;83.48
5812;BME280;2932;52.400;9.558;2023-02-17T04:11:15;100941.09;;;11.98;84.88
5812;BME280;2932;52.400;9.558;2023-02-17T04:13:41;100945.50;;;12.51;83.07
5812;BME280;2932;52.400;9.558;2023-02-17T04:16:07;100953.09;;;12.26;83.86
5812;BME280;2932;52.400;9.558;2023-02-17T04:18:34;100953.78;;;12.11;84.41
5812;BME280;2932;52.400;9.558;2023-02-17T04:20:59;100953.47;;;12.53;83.40
5812;BME280;2932;52.400;9.558;2023-02-17T04:23:25;100948.97;;;12.48;83.58
5812;BME280;2932;52.400;9.558;2023-02-17T04:25:51;100946.03;;;12.17;84.42
5812;BME280;2932;52.400;9.558;2023-02-17T04:28:17;100953.19;;;12.30;84.31
5812;BME280;2932;52.400;9.558;2023-02-17T04:30:47;100958.84;;;12.33;84.22
5812;BME280;2932;52.400;9.558;2023-02-17T04:33:12;100952.88;;;12.59;83.79
5812;BME280;2932;52.400;9.558;2023-02-17T04:35:38;100944.06;;;12.17;85.12
5812;BME280;2932;52.400;9.558;2023-02-17T04:38:04;100929.41;;;12.17;85.27
5812;BME280;2932;52.400;9.558;2023-02-17T04:40:30;100927.03;;;12.43;84.86
5812;BME280;2932;52.400;9.558;2023-02-17T04:42:55;100926.63;;;12.57;84.08
5812;BME280;2932;52.400;9.558;2023-02-17T04:45:21;100928.47;;;12.25;84.87
5812;BME280;2932;52.400;9.558;2023-02-17T04:47:46;100931.88;;;12.46;84.80
5812;BME280;2932;52.400;9.558;2023-02-17T04:50:12;100928.13;;;12.26;85.46
5812;BME280;2932;52.400;9.558;2023-02-17T04:52:38;100918.66;;;12.55;84.20
5812;BME280;2932;52.400;9.558;2023-02-17T04:55:04;100916.59;;;12.52;84.22
5812;BME280;2932;52.400;9.558;2023-02-17T04:57:30;100923.16;;;12.20;85.57
5812;BME280;2932;52.400;9.558;2023-02-17T04:59:56;100922.94;;;12.00;86.86
5812;BME280;2932;52.400;9.558;2023-02-17T05:02:21;100915.88;;;12.27;85.55
5812;BME280;2932;52.400;9.558;2023-02-17T05:04:46;100919.22;;;12.21;86.24
5812;BME280;2932;52.400;9.558;2023-02-17T05:07:13;100919.34;;;12.12;86.86
5812;BME280;2932;52.400;9.558;2023-02-17T05:09:38;100924.88;;;12.24;85.99
5812;BME280;2932;52.400;9.558;2023-02-17T05:12:05;100904.56;;;12.08;86.82
5812;BME280;2932;52.400;9.558;2023-02-17T05:14:31;100902.59;;;12.21;85.36
5812;BME280;2932;52.400;9.558;2023-02-17T05:16:57;100899.53;;;12.38;85.31
5812;BME280;2932;52.400;9.558;2023-02-17T05:19:22;100897.75;;;12.46;84.66
5812;BME280;2932;52.400;9.558;2023-02-17T05:21:47;100896.84;;;12.42;84.79
5812;BME280;2932;52.400;9.558;2023-02-17T05:24:13;100880.22;;;12.69;83.88
5812;BME280;2932;52.400;9.558;2023-02-17T05:26:38;100890.13;;;12.43;84.07
5812;BME280;2932;52.400;9.558;2023-02-17T05:29:03;100888.06;;;12.40;83.61
5812;BME280;2932;52.400;9.558;2023-02-17T05:31:29;100880.06;;;12.78;82.37
5812;BME280;2932;52.400;9.558;2023-02-17T05:33:54;100886.31;;;12.75;82.10
5812;BME280;2932;52.400;9.558;2023-02-17T05:36:19;100889.59;;;12.65;82.26
5812;BME280;2932;52.400;9.558;2023-02-17T05:38:45;100875.22;;;12.75;81.49
5812;BME280;2932;52.400;9.558;2023-02-17T05:41:14;100858.09;;;12.73;81.49
5812;BME280;2932;52.400;9.558;2023-02-17T05:43:39;100873.16;;;12.72;80.76
5812;BME280;2932;52.400;9.558;2023-02-17T05:46:05;100865.31;;;12.62;81.17
5812;BME280;2932;52.400;9.558;2023-02-17T05:48:33;100853.91;;;12.79;80.65
5812;BME280;2932;52.400;9.558;2023-02-17T05:50:59;100854.16;;;12.74;80.24
5812;BME280;2932;52.400;9.558;2023-02-17T05:53:24;100850.94;;;12.72;80.36
5812;BME280;2932;52.400;9.558;2023-02-17T05:55:49;100845.09;;;12.61;80.54
5812;BME280;2932;52.400;9.558;2023-02-17T05:58:15;100841.44;;;12.45;80.90
5812;BME280;2932;52.400;9.558;2023-02-17T06:00:40;100836.41;;;12.63;80.34
5812;BME280;2932;52.400;9.558;2023-02-17T06:03:05;100855.44;;;12.77;79.97
5812;BME280;2932;52.400;9.558;2023-02-17T06:05:31;100855.06;;;12.50;80.46
5812;BME280;2932;52.400;9.558;2023-02-17T06:07:56;100848.63;;;12.74;79.65
5812;BME280;2932;52.400;9.558;2023-02-17T06:10:21;100842.97;;;12.71;79.72
5812;BME280;2932;52.400;9.558;2023-02-17T06:12:47;100842.31;;;12.61;79.73
5812;BME280;2932;52.400;9.558;2023-02-17T06:15:12;100852.31;;;12.50;79.64
5812;BME280;2932;52.400;9.558;2023-02-17T06:17:38;100853.22;;;12.54;79.61
5812;BME280;2932;52.400;9.558;2023-02-17T06:20:04;100857.41;;;12.76;79.15
5812;BME280;2932;52.400;9.558;2023-02-17T06:22:29;100858.22;;;12.92;78.27
5812;BME280;2932;52.400;9.558;2023-02-17T06:24:54;100867.34;;;12.93;78.15
5812;BME280;2932;52.400;9.558;2023-02-17T06:27:20;100856.69;;;12.95;78.04
5812;BME280;2932;52.400;9.558;2023-02-17T06:29:45;100853.00;;;12.75;78.73
5812;BME280;2932;52.400;9.558;2023-02-17T06:32:11;100851.75;;;12.73;79.05
5812;BME280;2932;52.400;9.558;2023-02-17T06:34:36;100845.13;;;12.93;78.58
5812;BME280;2932;52.400;9.558;2023-02-17T06:37:01;100842.78;;;12.63;78.66
5812;BME280;2932;52.400;9.558;2023-02-17T06:39:26;100842.16;;;12.86;78.15
5812;BME280;2932;52.400;9.558;2023-02-17T06:41:52;100848.78;;;12.81;78.16
5812;BME280;2932;52.400;9.558;2023-02-17T06:44:17;100823.59;;;13.18;77.04
5812;BME280;2932;52.400;9.558;2023-02-17T06:46:42;100822.97;;;12.65;77.78
5812;BME280;2932;52.400;9.558;2023-02-17T06:49:10;100828.19;;;12.66;77.94
5812;BME280;2932;52.400;9.558;2023-02-17T06:51:36;100827.47;;;12.85;77.95
5812;BME280;2932;52.400;9.558;2023-02-17T06:54:02;100851.31;;;12.86;77.36
5812;BME280;2932;52.400;9.558;2023-02-17T06:56:27;100845.34;;;13.00;77.01
5812;BME280;2932;52.400;9.558;2023-02-17T06:58:52;100853.38;;;12.74;77.79
5812;BME280;2932;52.400;9.558;2023-02-17T07:01:21;100841.19;;;12.94;77.12
5812;BME280;2932;52.400;9.558;2023-02-17T07:03:47;100839.88;;;12.60;78.50
5812;BME280;2932;52.400;9.558;2023-02-17T07:06:13;100834.84;;;12.93;77.42
5812;BME280;2932;52.400;9.558;2023-02-17T07:08:38;100843.53;;;12.92;78.13
5812;BME280;2932;52.400;9.558;2023-02-17T07:11:05;100846.28;;;12.76;78.34
5812;BME280;2932;52.400;9.558;2023-02-17T07:13:31;100847.38;;;12.87;77.92
5812;BME280;2932;52.400;9.558;2023-02-17T07:15:56;100843.78;;;12.71;78.38
5812;BME280;2932;52.400;9.558;2023-02-17T07:18:22;100853.19;;;12.82;78.11
5812;BME280;2932;52.400;9.558;2023-02-17T07:20:47;100827.31;;;12.78;78.37
5812;BME280;2932;52.400;9.558;2023-02-17T07:23:12;100808.25;;;13.08;77.44
5812;BME280;2932;52.400;9.558;2023-02-17T07:25:38;100811.97;;;12.84;78.08
5812;BME280;2932;52.400;9.558;2023-02-17T07:28:03;100794.00;;;12.78;77.82
5812;BME280;2932;52.400;9.558;2023-02-17T07:30:28;100803.94;;;12.79;77.92
5812;BME280;2932;52.400;9.558;2023-02-17T07:32:54;100792.28;;;12.89;77.60
5812;BME280;2932;52.400;9.558;2023-02-17T07:35:19;100776.25;;;12.83;77.98
5812;BME280;2932;52.400;9.558;2023-02-17T07:37:45;100795.63;;;12.79;77.77
5812;BME280;2932;52.400;9.558;2023-02-17T07:40:10;100777.69;;;12.92;78.06
5812;BME280;2932;52.400;9.558;2023-02-17T07:42:36;100791.75;;;12.84;78.28
5812;BME280;2932;52.400;9.558;2023-02-17T07:45:02;100798.41;;;13.11;78.09
5812;BME280;2932;52.400;9.558;2023-02-17T07:47:27;100778.94;;;13.11;78.13
5812;BME280;2932;52.400;9.558;2023-02-17T07:49:52;100775.72;;;13.24;76.98
5812;BME280;2932;52.400;9.558;2023-02-17T07:52:18;100799.38;;;13.02;77.96
5812;BME280;2932;52.400;9.558;2023-02-17T07:54:43;100785.66;;;13.10;78.11
5812;BME280;2932;52.400;9.558;2023-02-17T07:57:09;100790.06;;;12.79;78.82
5812;BME280;2932;52.400;9.558;2023-02-17T07:59:34;100783.69;;;13.10;78.40
5812;BME280;2932;52.400;9.558;2023-02-17T08:02:00;100787.28;;;12.95;78.47
5812;BME280;2932;52.400;9.558;2023-02-17T08:04:25;100796.84;;;12.82;79.35
5812;BME280;2932;52.400;9.558;2023-02-17T08:06:50;100790.31;;;13.06;78.66
5812;BME280;2932;52.400;9.558;2023-02-17T08:09:16;100793.53;;;12.92;79.18
5812;BME280;2932;52.400;9.558;2023-02-17T08:11:59;100789.34;;;12.98;79.08
5812;BME280;2932;52.400;9.558;2023-02-17T08:14:43;100778.59;;;12.96;79.08
5812;BME280;2932;52.400;9.558;2023-02-17T08:17:09;100798.66;;;13.06;79.00
5812;BME280;2932;52.400;9.558;2023-02-17T08:19:34;100784.94;;;12.97;79.46
5812;BME280;2932;52.400;9.558;2023-02-17T08:21:59;100782.00;;;13.06;79.42
5812;BME280;2932;52.400;9.558;2023-02-17T08:24:25;100783.56;;;13.19;78.63
5812;BME280;2932;52.400;9.558;2023-02-17T08:26:51;100771.22;;;13.35;78.52
5812;BME280;2932;52.400;9.558;2023-02-17T08:29:17;100775.00;;;13.12;79.42
5812;BME280;2932;52.400;9.558;2023-02-17T08:31:44;100764.59;;;13.24;78.70
5812;BME280;2932;52.400;9.558;2023-02-17T08:34:11;100773.47;;;12.98;79.51
5812;BME280;2932;52.400;9.558;2023-02-17T08:36:37;100755.91;;;13.26;79.40
5812;BME280;2932;52.400;9.558;2023-02-17T08:39:05;100762.19;;;13.23;78.99
5812;BME280;2932;52.400;9.558;2023-02-17T08:41:33;100779.03;;;13.14;79.24
5812;BME280;2932;52.400;9.558;2023-02-17T08:44:02;100762.81;;;13.00;79.98
5812;BME280;2932;52.400;9.558;2023-02-17T08:46:28;100736.00;;;13.24;79.36
5812;BME280;2932;52.400;9.558;2023-02-17T08:48:53;100755.91;;;13.26;79.83
5812;BME280;2932;52.400;9.558;2023-02-17T08:51:22;100740.41;;;13.60;77.83
5812;BME280;2932;52.400;9.558;2023-02-17T08:53:51;100734.28;;;13.51;78.23
5812;BME280;2932;52.400;9.558;2023-02-17T08:56:18;100748.75;;;13.60;78.05
5812;BME280;2932;52.400;9.558;2023-02-17T08:58:43;100747.22;;;13.27;79.09
5812;BME280;2932;52.400;9.558;2023-02-17T09:01:09;100747.31;;;13.15;79.81
5812;BME280;2932;52.400;9.558;2023-02-17T09:03:36;100720.63;;;13.11;80.01
5812;BME280;2932;52.400;9.558;2023-02-17T09:06:02;100730.66;;;13.15;80.55
5812;BME280;2932;52.400;9.558;2023-02-17T09:08:28;100737.13;;;13.19;79.96
5812;BME280;2932;52.400;9.558;2023-02-17T09:10:53;100730.38;;;12.89;81.65
5812;BME280;2932;52.400;9.558;2023-02-17T09:13:18;100733.53;;;13.19;80.75
5812;BME280;2932;52.400;9.558;2023-02-17T09:20:50;100770.06;;;13.21;81.09
5812;BME280;2932;52.400;9.558;2023-02-17T09:23:16;100758.34;;;13.12;81.17
5812;BME280;2932;52.400;9.558;2023-02-17T09:25:42;100736.81;;;13.40;80.88
5812;BME280;2932;52.400;9.558;2023-02-17T09:28:07;100744.84;;;13.45;81.41
5812;BME280;2932;52.400;9.558;2023-02-17T09:30:32;100735.44;;;13.69;80.00
5812;BME280;2932;52.400;9.558;2023-02-17T09:32:58;100743.63;;;13.27;81.26
5812;BME280;2932;52.400;9.558;2023-02-17T09:35:24;100743.63;;;13.27;81.89
5812;BME280;2932;52.400;9.558;2023-02-17T09:37:50;100728.34;;;13.17;82.27
5812;BME280;2932;52.400;9.558;2023-02-17T09:43:37;100728.31;;;13.01;83.56
5812;BME280;2932;52.400;9.558;2023-02-17T09:55:16;100715.44;;;12.93;84.29
5812;BME280;2932;52.400;9.558;2023-02-17T09:57:52;100711.22;;;12.84;84.79
5812;BME280;2932;52.400;9.558;2023-02-17T10:00:24;100706.81;;;13.14;84.11
5812;BME280;2932;52.400;9.558;2023-02-17T10:05:30;100744.19;;;12.85;85.07
5812;BME280;2932;52.400;9.558;2023-02-17T10:08:06;100697.44;;;13.38;83.34
5812;BME280;2932;52.400;9.558;2023-02-17T10:10:42;100698.16;;;13.16;84.11
5812;BME280;2932;52.400;9.558;2023-02-17T10:13:09;100697.91;;;13.24;84.02
5812;BME280;2932;52.400;9.558;2023-02-17T10:15:39;100700.69;;;13.24;83.79
5812;BME280;2932;52.400;9.558;2023-02-17T10:18:45;100694.38;;;13.43;83.58
5812;BME280;2932;52.400;9.558;2023-02-17T10:21:25;100698.16;;;13.16;84.28
5812;BME280;2932;52.400;9.558;2023-02-17T10:23:51;100703.91;;;13.26;84.10
5812;BME280;2932;52.400;9.558;2023-02-17T10:29:01;100718.69;;;13.46;83.60
5812;BME280;2932;52.400;9.558;2023-02-17T10:31:54;100701.34;;;13.53;82.73
5812;BME280;2932;52.400;9.558;2023-02-17T10:34:35;100691.50;;;13.05;84.63
5812;BME280;2932;52.400;9.558;2023-02-17T10:37:03;100703.50;;;12.93;85.31
5812;BME280;2932;52.400;9.558;2023-02-17T10:42:05;100699.94;;;13.43;83.59
5812;BME280;2932;52.400;9.558;2023-02-17T10:44:33;100687.66;;;13.44;83.72
5812;BME280;2932;52.400;9.558;2023-02-17T10:47:01;100687.75;;;13.48;83.07
5812;BME280;2932;52.400;9.558;2023-02-17T10:49:31;100666.38;;;13.52;82.84
5812;BME280;2932;52.400;9.558;2023-02-17T10:52:19;100677.28;;;13.41;82.61
5812;BME280;2932;52.400;9.558;2023-02-17T10:54:54;100675.16;;;13.73;81.43
5812;BME280;2932;52.400;9.558;2023-02-17T10:57:26;100676.84;;;13.58;81.49
5812;BME280;2932;52.400;9.558;2023-02-17T10:59:54;100659.22;;;13.51;81.79
5812;BME280;2932;52.400;9.558;2023-02-17T11:02:41;100667.69;;;13.39;82.29
5812;BME280;2932;52.400;9.558;2023-02-17T11:05:07;100638.56;;;13.32;82.16
5812;BME280;2932;52.400;9.558;2023-02-17T11:07:39;100655.13;;;13.45;81.59
5812;BME280;2932;52.400;9.558;2023-02-17T11:10:26;100665.72;;;13.78;80.72
5812;BME280;2932;52.400;9.558;2023-02-17T11:12:53;100664.25;;;13.84;80.57
5812;BME280;2932;52.400;9.558;2023-02-17T11:15:29;100651.69;;;13.51;81.00
5812;BME280;2932;52.400;9.558;2023-02-17T11:17:59;100660.28;;;13.65;80.68
5812;BME280;2932;52.400;9.558;2023-02-17T11:20:29;100637.03;;;13.93;79.83
5812;BME280;2932;52.400;9.558;2023-02-17T11:25:32;100628.50;;;14.05;78.79
5812;BME280;2932;52.400;9.558;2023-02-17T11:28:00;100634.50;;;14.07;78.05
5812;BME280;2932;52.400;9.558;2023-02-17T11:30:27;100647.72;;;14.14;77.32
5812;BME280;2932;52.400;9.558;2023-02-17T11:32:53;100623.06;;;14.12;77.39
5812;BME280;2932;52.400;9.558;2023-02-17T11:35:26;100660.09;;;13.93;77.37
5812;BME280;2932;52.400;9.558;2023-02-17T11:37:59;100632.72;;;14.18;77.05
5812;BME280;2932;52.400;9.558;2023-02-17T11:40:29;100630.72;;;13.96;77.55
5812;BME280;2932;52.400;9.558;2023-02-17T11:42:59;100620.28;;;14.35;76.54
5812;BME280;2932;52.400;9.558;2023-02-17T11:45:43;100619.94;;;14.37;76.28
5812;BME280;2932;52.400;9.558;2023-02-17T11:48:42;100617.50;;;14.35;76.33
5812;BME280;2932;52.400;9.558;2023-02-17T11:56:18;100622.59;;;14.29;75.90
5812;BME280;2932;52.400;9.558;2023-02-17T12:04:30;100601.44;;;14.48;75.81
5812;BME280;2932;52.400;9.558;2023-02-17T12:20:49;100615.34;;;14.25;76.27
5812;BME280;2932;52.400;9.558;2023-02-17T12:26:23;100629.81;;;14.34;76.03
5812;BME280;2932;52.400;9.558;2023-02-17T12:36:58;100635.44;;;14.38;75.48
5812;BME280;2932;52.400;9.558;2023-02-17T12:39:38;100643.34;;;14.13;76.21
5812;BME280;2932;52.400;9.558;2023-02-17T12:42:29;100650.41;;;14.29;75.71
5812;BME280;2932;52.400;9.558;2023-02-17T12:45:29;100639.59;;;14.24;75.63
5812;BME280;2932;52.400;9.558;2023-02-17T12:48:06;100647.13;;;14.24;75.85
5812;BME280;2932;52.400;9.558;2023-02-17T12:50:38;100645.53;;;14.23;76.00
5812;BME280;2932;52.400;9.558;2023-02-17T12:53:12;100620.66;;;14.33;75.67
5812;BME280;2932;52.400;9.558;2023-02-17T12:55:43;100630.81;;;14.45;75.46
5812;BME280;2932;52.400;9.558;2023-02-17T12:58:21;100629.75;;;14.30;75.70
5812;BME280;2932;52.400;9.558;2023-02-17T13:00:53;100636.19;;;14.34;75.63
5812;BME280;2932;52.400;9.558;2023-02-17T13:03:19;100635.50;;;14.18;76.12
5812;BME280;2932;52.400;9.558;2023-02-17T13:05:57;100632.53;;;14.30;75.66
5812;BME280;2932;52.400;9.558;2023-02-17T13:08:31;100629.31;;;14.28;75.61
5812;BME280;2932;52.400;9.558;2023-02-17T13:11:25;100635.31;;;14.30;76.10
5812;BME280;2932;52.400;9.558;2023-02-17T13:13:50;100622.25;;;14.12;76.59
5812;BME280;2932;52.400;9.558;2023-02-17T13:16:15;100666.53;;;13.97;77.09
5812;BME280;2932;52.400;9.558;2023-02-17T13:18:47;100643.47;;;14.20;76.50
5812;BME280;2932;52.400;9.558;2023-02-17T13:21:25;100652.25;;;13.99;77.68
5812;BME280;2932;52.400;9.558;2023-02-17T13:24:35;100658.84;;;13.91;78.76
5812;BME280;2932;52.400;9.558;2023-02-17T13:27:18;100653.63;;;13.70;80.54
5812;BME280;2932;52.400;9.558;2023-02-17T13:32:39;100680.94;;;13.84;81.63
5812;BME280;2932;52.400;9.558;2023-02-17T13:35:29;100689.00;;;13.50;82.84
5812;BME280;2932;52.400;9.558;2023-02-17T13:37:58;100694.75;;;13.61;83.07
5812;BME280;2932;52.400;9.558;2023-02-17T13:40:35;100725.00;;;13.27;84.37
5812;BME280;2932;52.400;9.558;2023-02-17T13:43:16;100716.19;;;13.60;83.78
5812;BME280;2932;52.400;9.558;2023-02-17T13:45:51;100707.72;;;13.53;83.81
5812;BME280;2932;52.400;9.558;2023-02-17T13:48:24;100699.91;;;13.59;84.30
5812;BME280;2932;52.400;9.558;2023-02-17T13:50:52;100710.63;;;13.41;85.05
5812;BME280;2932;52.400;9.558;2023-02-17T13:53:28;100689.16;;;13.22;85.29
5812;BME280;2932;52.400;9.558;2023-02-17T13:55:58;100707.19;;;13.48;85.59
5812;BME280;2932;52.400;9.558;2023-02-17T13:58:27;100702.16;;;13.18;86.95
5812;BME280;2932;52.400;9.558;2023-02-17T14:00:54;100685.28;;;13.27;87.54
5812;BME280;2932;52.400;9.558;2023-02-17T14:03:45;100704.22;;;13.06;88.40
5812;BME280;2932;52.400;9.558;2023-02-17T14:06:23;100703.19;;;13.29;88.12
5812;BME280;2932;52.400;9.558;2023-02-17T14:08:50;100694.75;;;13.42;87.81
5812;BME280;2932;52.400;9.558;2023-02-17T14:11:20;100695.53;;;13.07;89.07
5812;BME280;2932;52.400;9.558;2023-02-17T14:13:48;100701.19;;;12.95;89.87
5812;BME280;2932;52.400;9.558;2023-02-17T14:19:18;100726.38;;;12.71;91.14
5812;BME280;2932;52.400;9.558;2023-02-17T14:22:03;100723.34;;;12.76;91.42
5812;BME280;2932;52.400;9.558;2023-02-17T14:24:34;100709.44;;;12.60;91.05
5812;BME280;2932;52.400;9.558;2023-02-17T14:32:04;100713.81;;;13.08;89.62
5812;BME280;2932;52.400;9.558;2023-02-17T14:34:32;100706.19;;;12.89;90.01
5812;BME280;2932;52.400;9.558;2023-02-17T14:37:09;100710.41;;;12.99;89.76
5812;BME280;2932;52.400;9.558;2023-02-17T14:39:35;100716.69;;;12.96;89.97
5812;BME280;2932;52.400;9.558;2023-02-17T14:42:00;100707.63;;;13.15;89.24
5812;BME280;2932;52.400;9.558;2023-02-17T14:44:25;100713.16;;;13.15;89.37
5812;BME280;2932;52.400;9.558;2023-02-17T14:46:50;100729.75;;;13.27;88.67
5812;BME280;2932;52.400;9.558;2023-02-17T14:49:16;100720.44;;;12.88;89.49
5812;BME280;2932;52.400;9.558;2023-02-17T14:51:41;100717.84;;;13.11;89.33